Tiempo atmosférico en la estación meteorológica de Soba, Alto Miera, Cantabria (695 m.)



Fecha
DESCASC
Temp. máxima en grados centígrados (hora)
DESCASC
Temp. mínima en grados centígrados (hora)
DESCASC
Temp. media en grados centígrados
DESCASC
Racha de viento máxima en m/sg (hora)
DESCASC
Velocidad máxima media en intervalos de 10 minutos(hora)
DESCASC
Precipitaciones diarias en mm
DESCASC
Precipitaciones de 00:00 a 06:00 en mm
DESCASC
Precipitaciones de 06:00 a 12:00 en mm
DESCASC
Precipitaciones de 12:00 a 18:00 en mm
DESCASC
Precipitaciones de 18:00 a 24:00 en mm
DESCASC
29-10-2020 17.8 (15:30) 7.9 (06:40) 12.8 5.28 (08:10) 2.78 (08:10) 0 0 0 0 0
28-10-2020 13.3 (16:20) 8.4 (23:40) 10.8 7.78 (01:20) 3.89 (00:30) 2.4 0.2 2.2 0 0
27-10-2020 15.9 (16:20) 7.8 (00:00) 11.8 9.44 (17:00) 5.83 (17:40) 0 0 0 0 0
26-10-2020 10.4 (15:50) 5.6 (00:00) 8 10.28 (12:50) 5.56 (12:50) 0 0 0 0 0
25-10-2020 14.3 (02:30) 5.4 (00:00) 9.9 18.61 (07:50) 9.44 (06:20) 15 0 0.6 12.2 2.2
24-10-2020 15.4 (15:30) 7.4 (00:00) 11.4 16.67 (20:20) 8.06 (20:20) 0 0 0 0 0
23-10-2020 14.7 (12:50) 7.4 (00:00) 11 6.94 (14:30) 3.89 (14:40) 0.4 0.2 0 0.2 0
22-10-2020 -- (--) -- (--) -- -- (--) -- (--) -- -- -- 0 0
21-10-2020 -- (--) -- (--) -- -- (--) -- (--) -- 5.6 -- 0.4 --
20-10-2020 -- (--) -- (--) -- -- (--) -- (--) -- 0 0.4 2 --
19-10-2020 22.5 (18:30) 12.9 (00:00) 17.7 20.28 (13:10) 11.11 (13:00) 0 0 0 0 0
18-10-2020 21 (15:30) 8.4 (00:00) 14.7 3.89 (16:20) 2.22 (04:30) 0 0 0 0 0
17-10-2020 16.3 (15:00) 6.5 (00:00) 11.4 4.17 (14:00) 2.5 (04:40) 0 0 0 0 0
16-10-2020 11.5 (17:10) 4.1 (00:00) 7.8 3.06 (08:40) 1.67 (13:30) 0.8 0.8 0 0 0
15-10-2020 7.7 (16:50) 5.7 (00:00) 6.7 7.78 (10:40) 3.61 (10:50) 12.2 4.6 4.2 2.8 0.6
14-10-2020 8.1 (12:20) 6.5 (00:00) 7.3 12.78 (14:40) 6.39 (14:40) 54.4 17.2 9.4 19.8 8
13-10-2020 12.9 (00:30) 7.4 (00:00) 10.1 11.11 (02:40) 5.28 (16:00) 45.4 14.8 10.4 8.2 12
12-10-2020 13.1 (16:00) 7.1 (00:00) 10.1 10.28 (23:59) 4.72 (23:59) 19.8 5 0.6 0 14.2
11-10-2020 8.9 (15:20) 6.7 (00:00) 7.8 11.67 (21:40) 6.11 (18:50) 15.2 0.6 3.4 3.8 7.4
10-10-2020 13.2 (15:20) 8.4 (00:00) 10.8 7.78 (10:00) 4.44 (10:00) 14.8 3.2 3.4 3 5.2
09-10-2020 14.3 (13:50) 11.4 (00:00) 12.8 3.61 (08:00) 2.22 (14:40) 0.2 0 0 0.2 0
08-10-2020 19.4 (16:20) 10.2 (00:00) 14.8 3.33 (18:00) 1.67 (23:50) 0 0 0 0 0
07-10-2020 15.5 (00:30) 12.7 (00:00) 14.1 6.94 (12:00) 3.33 (04:40) 15 6.2 6.4 1.2 1.2
06-10-2020 18.2 (11:40) 12.6 (00:00) 15.4 7.78 (01:20) 4.17 (17:10) 2.4 0 2.4 0 0
05-10-2020 15 (15:20) 7.8 (00:00) 11.4 13.61 (01:00) 5.83 (01:00) 12.4 5.6 6.8 0 0
04-10-2020 11.2 (04:20) 6.9 (00:00) 9 17.78 (21:30) 8.33 (13:00) 21 2 11.8 5.2 2
03-10-2020 12.1 (18:00) 4.9 (00:00) 8.5 21.94 (06:40) 9.72 (06:30) 48.4 14 33.6 0.8 0
02-10-2020 16.5 (00:50) 3.4 (00:00) 10 23.33 (01:50) 9.44 (03:10) 63.8 19.6 18.6 13.6 12
01-10-2020 16.7 (21:40) 10.6 (00:00) 13.7 23.89 (23:30) 9.72 (23:30) 10.2 0 8.8 1.4 0

Gráficas

Temp. máximas Temp. mínimas Temp. medias Precipitaciones Rachas de viento máximas Velocidades máximas media en intervalos de 10 minutos

Datos horarios

Fecha y hora oficial Temperatura (ºC) Velocidad del viento (km/h) Dirección del viento Racha (km/h) Dirección de racha Precipitación (mm) Presión (hPa) Tendencia (hPa) Humedad (%)
2020-10-30 23:00:00 15.6 12 Sur 24 Sudoeste 0 -- -- 49
2020-10-30 22:00:00 10.7 3 Sudeste 10 Este 0 -- -- 67
2020-10-30 21:00:00 10.5 5 Sudeste 12 Sur 0 -- -- 76
2020-10-30 20:00:00 10.9 4 Sur 10 Sur 0 -- -- 80
2020-10-30 19:00:00 11.4 5 Sudeste 8 Sudeste 0 -- -- 85
2020-10-30 18:00:00 12.2 3 Sudeste 7 Sur 0 -- -- 87
2020-10-30 17:00:00 15.1 3 Sudoeste 7 Noroeste 0 -- -- 77
2020-10-30 16:00:00 17.9 5 Noroeste 12 Noroeste 0 -- -- 69
2020-10-30 15:00:00 18.3 7 Noroeste 11 Noroeste 0 -- -- 67
2020-10-30 14:00:00 18 8 Noroeste 12 Noroeste 0 -- -- 68
2020-10-30 13:00:00 16.6 5 Noroeste 10 Noroeste 0 -- -- 68
2020-10-30 12:00:00 16.4 4 Noroeste 8 Noroeste 0 -- -- 56
2020-10-30 11:00:00 14.1 0 Calma 11 Este 0 -- -- 62
2020-10-30 10:00:00 8.4 3 Este 6 Sudeste 0 -- -- 74
2020-10-30 09:00:00 7.4 4 Sudeste 9 Sur 0 -- -- 73
2020-10-30 08:00:00 6.8 3 Sudeste 8 Sur 0 -- -- 69
2020-10-30 07:00:00 7.5 3 Sudeste 10 Sudeste 0 -- -- 65
2020-10-30 06:00:00 7.8 3 Sudeste 9 Sur 0 -- -- 65
2020-10-30 05:00:00 7.5 4 Sudeste 8 Sur 0 -- -- 70
2020-10-30 04:00:00 7.3 5 Sudeste 10 Sudeste 0 -- -- 79
2020-10-30 03:00:00 7.4 3 Sudeste 8 Sur 0 -- -- 78
2020-10-30 02:00:00 7.9 3 Sudeste 8 Sudeste 0 -- -- 78
2020-10-30 01:00:00 8 4 Sudeste 8 Sudeste 0 -- -- 75
2020-10-30 00:00:00 8.8 3 Sudeste 8 Sudeste 0 -- -- 74
2020-10-29 23:00:00 9.2 3 Sudeste 9 Sudeste 0 -- -- 75
2020-10-29 22:00:00 9.3 3 Sudeste 6 Sudeste 0 -- -- 78
2020-10-29 21:00:00 9.2 2 Sudeste 7 Sudeste 0 -- -- 84
2020-10-29 20:00:00 9.2 3 Sudeste 6 Sudeste 0 -- -- 95
2020-10-29 19:00:00 9.9 3 Este 7 Sur 0 -- -- 92
2020-10-29 18:00:00 12.1 3 Sudeste 6 Noroeste 0 -- -- 86
2020-10-29 17:00:00 15.3 0 Calma 11 Noroeste 0 -- -- 75
2020-10-29 16:00:00 17.5 5 Noroeste 10 Noroeste 0 -- -- 65
2020-10-29 15:00:00 17.6 6 Oeste 11 Noroeste 0 -- -- 64
2020-10-29 14:00:00 17.1 6 Noroeste 10 Noroeste 0 -- -- 65
2020-10-29 13:00:00 16.2 3 Oeste 12 Noroeste 0 -- -- 69
2020-10-29 12:00:00 14.6 10 Noroeste 16 Noroeste 0 -- -- 72
2020-10-29 11:00:00 13 2 Norte 9 Este 0 -- -- 75
2020-10-29 10:00:00 8.8 4 Sudeste 7 Sudeste 0 -- -- 88
2020-10-29 09:00:00 8.4 4 Sudeste 19 Sudeste 0 -- -- 88
2020-10-29 08:00:00 8.7 8 Sudeste 14 Sudeste 0 -- -- 85
2020-10-29 07:00:00 8 6 Sudeste 12 Noroeste 0 -- -- 91
2020-10-29 06:00:00 8.7 4 Nordeste 10 Este 0 -- -- 87
2020-10-29 05:00:00 9.2 2 Sudeste 9 Sudeste 0 -- -- 90
2020-10-29 04:00:00 8.7 6 Sudeste 10 Sudeste 0 -- -- 90
2020-10-29 03:00:00 8.6 4 Sudeste 11 Sudeste 0 -- -- 89
2020-10-29 02:00:00 8.1 5 Sudeste 16 Sudeste 0 -- -- 90
2020-10-29 01:00:00 8.3 4 Sudeste 14 Sudeste 0 -- -- 89
2020-10-29 00:00:00 8.9 5 Sudeste 13 Sur 0 -- -- 87
2020-10-28 23:00:00 8.8 3 Sudeste 14 Sudeste 0 -- -- 85
2020-10-28 22:00:00 9 6 Sudeste 16 Sudeste 0 -- -- 85
2020-10-28 21:00:00 8.9 8 Sudeste 12 Sur 0 -- -- 84
2020-10-28 20:00:00 8.8 8 Sudeste 13 Sudeste 0 -- -- 84
2020-10-28 19:00:00 9.7 3 Sudeste 9 Sudeste 0 -- -- 86
2020-10-28 18:00:00 10.4 6 Sudeste 11 Sudeste 0 -- -- 83
2020-10-28 17:00:00 12.3 3 Sur 5 Noroeste 0 -- -- 79
2020-10-28 16:00:00 12.6 3 Sudoeste 6 Sur 0 -- -- 74
2020-10-28 15:00:00 11.5 3 Sudoeste 16 Noroeste 0 -- -- 77
2020-10-28 14:00:00 11.4 8 Noroeste 13 Noroeste 0 -- -- 84
2020-10-28 13:00:00 11.1 7 Noroeste 12 Norte 0 -- -- 84
2020-10-28 12:00:00 10.8 3 Norte 15 Norte 0.2 -- -- 87
2020-10-28 11:00:00 10.9 0 Calma 4 Oeste 0 -- -- 91
2020-10-28 10:00:00 10.6 0 Calma 7 Sur 0 -- -- 97
2020-10-28 09:00:00 10 0 Calma 5 Sur 0.4 -- -- 99
2020-10-28 08:00:00 9.8 3 Sur 5 Sudeste 0.8 -- -- 99
2020-10-28 07:00:00 10 0 Calma 7 Noroeste 0.8 -- -- 99
2020-10-28 06:00:00 10.1 4 Noroeste 14 Norte 0 -- -- 99
2020-10-28 05:00:00 10.2 2 Noroeste 8 Norte 0 -- -- 99
2020-10-28 04:00:00 10.5 3 Norte 14 Noroeste 0 -- -- 97
2020-10-28 03:00:00 11.5 10 Norte 15 Noroeste 0 -- -- 89
2020-10-28 02:00:00 12.1 6 Sudeste 28 Noroeste 0 -- -- 81
2020-10-28 01:00:00 12.6 6 Norte 27 Sudeste 0.2 -- -- 77
2020-10-28 00:00:00 11.6 3 Nordeste 12 Nordeste 0 -- -- 82
2020-10-27 23:00:00 12.4 4 Norte 21 Sudeste 0 -- -- 78
2020-10-27 22:00:00 12.4 7 Sudoeste 17 Sur 0 -- -- 78
2020-10-27 21:00:00 13.2 6 Sudoeste 26 Sur 0 -- -- 78
2020-10-27 20:00:00 13.7 12 Sur 26 Sur 0 -- -- 73
2020-10-27 19:00:00 14.4 13 Sur 27 Sur 0 -- -- 69
2020-10-27 18:00:00 13.9 14 Sur 34 Sur 0 -- -- 69
2020-10-27 17:00:00 14.5 18 Sur 34 Sur 0 -- -- 67
2020-10-27 16:00:00 15.4 8 Sur 29 Sur 0 -- -- 70
2020-10-27 15:00:00 14.5 14 Sur 31 Sur 0 -- -- 71
2020-10-27 14:00:00 13.9 10 Sur 24 Sur 0 -- -- 71
2020-10-27 13:00:00 13.7 13 Sur 22 Sudoeste 0 -- -- 64
2020-10-27 12:00:00 14.5 3 Oeste 20 Sur 0 -- -- 63
2020-10-27 11:00:00 13.2 6 Sudoeste 17 Sur 0 -- -- 61
2020-10-27 10:00:00 11.8 10 Sur 20 Sudoeste 0 -- -- 60
2020-10-27 09:00:00 10.7 8 Sur 22 Sur 0 -- -- 61
2020-10-27 08:00:00 10 6 Sudeste 22 Este 0 -- -- 59
2020-10-27 07:00:00 9.3 6 Sudeste 13 Sur 0 -- -- 62
2020-10-27 06:00:00 8.8 7 Sudeste 13 Sudeste 0 -- -- 65
2020-10-27 05:00:00 8.4 7 Este 13 Este 0 -- -- 67
2020-10-27 04:00:00 8.3 5 Sudeste 11 Este 0 -- -- 66
2020-10-27 03:00:00 8.5 6 Sudeste 13 Sudeste 0 -- -- 70
2020-10-27 02:00:00 7.9 8 Sudeste 12 Sudeste 0 -- -- 74
2020-10-27 01:00:00 8.4 3 Norte 15 Norte 0 -- -- 71
2020-10-27 00:00:00 8.4 9 Norte 19 Norte 0 -- -- 67
2020-10-26 23:00:00 7.1 3 Sudeste 6 Sudeste 0 -- -- 87
2020-10-26 22:00:00 7.4 4 Nordeste 17 Norte 0 -- -- 83
2020-10-26 21:00:00 8.7 8 Norte 27 Norte 0 -- -- 78
2020-10-26 20:00:00 8.6 6 Norte 15 Norte 0 -- -- 84
2020-10-26 19:00:00 8.8 5 Norte 15 Noroeste 0 -- -- 84
2020-10-26 18:00:00 9.2 12 Noroeste 20 Norte 0 -- -- 79
2020-10-26 17:00:00 9.9 5 Noroeste 27 Noroeste 0 -- -- 74
2020-10-26 16:00:00 10.3 7 Noroeste 31 Noroeste 0 -- -- 70
2020-10-26 15:00:00 10 6 Noroeste 26 Noroeste 0 -- -- 73
2020-10-26 14:00:00 9.3 13 Noroeste 35 Norte 0 -- -- 75
2020-10-26 13:00:00 9 18 Noroeste 37 Noroeste 0 -- -- 74
2020-10-26 12:00:00 8.4 13 Norte 28 Norte 0 -- -- 74
2020-10-26 11:00:00 7.9 12 Norte 27 Norte 0 -- -- 75
2020-10-26 10:00:00 7.4 10 Norte 29 Noroeste 0 -- -- 74
2020-10-26 09:00:00 7.3 17 Norte 28 Norte 0 -- -- 73
2020-10-26 08:00:00 7 10 Norte 29 Norte 0 -- -- 74
2020-10-26 07:00:00 6.7 10 Norte 32 Norte 0 -- -- 75
2020-10-26 06:00:00 7 11 Norte 27 Norte 0 -- -- 73
2020-10-26 05:00:00 6.9 10 Norte 21 Norte 0 -- -- 74
2020-10-26 04:00:00 6.1 2 Este 9 Sudeste 0 -- -- 85
2020-10-26 03:00:00 5.6 4 Sudeste 12 Nordeste 0 -- -- 86
2020-10-26 02:00:00 6.4 4 Este 16 Noroeste 0 -- -- 79
2020-10-26 01:00:00 6.8 7 Nordeste 18 Nordeste 0 -- -- 78
2020-10-26 00:00:00 6.1 4 Nordeste 14 Norte 0 -- -- 85
2020-10-25 23:00:00 5.6 3 Sudeste 8 Norte 0 -- -- 86
2020-10-25 22:00:00 6.7 3 Sudeste 12 Sudeste 0 -- -- 88
2020-10-25 21:00:00 7.2 7 Sudeste 12 Sudeste 0.2 -- -- 87
2020-10-25 20:00:00 7.2 7 Sudeste 19 Noroeste 1.2 -- -- 91
2020-10-25 19:00:00 7.8 3 Sudeste 23 Sudeste 0.8 -- -- 91
2020-10-25 18:00:00 7.2 5 Sudeste 13 Sur 2 -- -- 96
2020-10-25 17:00:00 7.4 4 Nordeste 22 Norte 2.4 -- -- 91
2020-10-25 16:00:00 7.6 12 Norte 28 Norte 2.4 -- -- 91
2020-10-25 15:00:00 8.6 3 Noroeste 28 Noroeste 4.8 -- -- 97
2020-10-25 14:00:00 9.7 8 Noroeste 20 Noroeste 0.6 -- -- 97
2020-10-25 13:00:00 10.6 10 Noroeste 41 Sudeste 0 -- -- 91
2020-10-25 12:00:00 13.1 22 Sudeste 50 Sudeste 0 -- -- 80
2020-10-25 11:00:00 13.1 21 Sudeste 51 Sudeste 0 -- -- 76
2020-10-25 10:00:00 12.5 19 Sudeste 50 Este 0.2 -- -- 78
2020-10-25 09:00:00 12 16 Sudeste 64 Sudeste 0.4 -- -- 83
2020-10-25 08:00:00 12.7 19 Sudeste 67 Sudeste 0 -- -- 76
2020-10-25 07:00:00 12.5 21 Sudeste 66 Sudeste 0 -- -- 77
2020-10-25 06:00:00 13.2 28 Sudeste 67 Sudeste 0 -- -- 72
2020-10-25 05:00:00 13.9 14 Sudeste 55 Sur 0 -- -- 68
2020-10-25 04:00:00 13.8 20 Sudeste 47 Este 0 -- -- 68
2020-10-25 03:00:00 13.8 14 Nordeste 54 Sudoeste 0 -- -- 67
2020-10-25 02:00:00 13.5 21 Sudeste 54 Sudeste 0 -- -- 70
2020-10-25 01:00:00 14.1 23 Sudeste 58 Este 0 -- -- 66
2020-10-25 00:00:00 13.8 17 Sudeste 53 Sudeste 0 -- -- 69
2020-10-24 23:00:00 13.7 21 Sudeste 54 Sudeste 0 -- -- 68
2020-10-24 22:00:00 13.6 18 Sudeste 51 Sudeste 0 -- -- 67
2020-10-24 21:00:00 13.3 14 Sur 60 Sudeste 0 -- -- 68
2020-10-24 20:00:00 13.4 15 Sudeste 45 Sudeste 0 -- -- 69
2020-10-24 19:00:00 13.8 19 Sudeste 54 Sudeste 0 -- -- 65
2020-10-24 18:00:00 14 19 Sur 44 Sur 0 -- -- 60
2020-10-24 17:00:00 14 17 Sur 46 Sur 0 -- -- 58
2020-10-24 16:00:00 14.2 17 Sur 46 Sudeste 0 -- -- 58
2020-10-24 15:00:00 14.8 15 Sudeste 53 Sudeste 0 -- -- 58
2020-10-24 14:00:00 15 15 Sur 37 Sudeste 0 -- -- 58
2020-10-24 13:00:00 13.3 22 Sudeste 35 Sudeste 0 -- -- 60
2020-10-24 12:00:00 14.2 14 Sudeste 29 Sudeste 0 -- -- 54
2020-10-24 11:00:00 12.6 14 Sudeste 28 Sudeste 0 -- -- 58
2020-10-24 10:00:00 11.5 9 Sur 21 Sur 0 -- -- 63
2020-10-24 09:00:00 10.8 9 Sudeste 18 Sudeste 0 -- -- 65
2020-10-24 08:00:00 10.5 10 Sudeste 16 Sur 0 -- -- 65
2020-10-24 07:00:00 9.8 7 Sudeste 13 Sudeste 0 -- -- 67
2020-10-24 06:00:00 10.1 10 Sudeste 17 Este 0 -- -- 66
2020-10-24 05:00:00 9.5 8 Sudeste 14 Este 0 -- -- 70
2020-10-24 04:00:00 9.5 5 Sudeste 15 Sudeste 0 -- -- 71
2020-10-24 03:00:00 9 5 Sudeste 14 Este 0 -- -- 75
2020-10-24 02:00:00 10 7 Sudeste 17 Este 0 -- -- 73
2020-10-24 01:00:00 8.8 9 Sudeste 15 Sudeste 0 -- -- 82
2020-10-24 00:00:00 7.5 4 Sudeste 10 Sudeste 0 -- -- 94
2020-10-23 23:00:00 7.7 2 Este 10 Sudeste 0 -- -- 93
2020-10-23 22:00:00 8.9 3 Este 12 Este 0 -- -- 91
2020-10-23 21:00:00 10 5 Sudeste 12 Noroeste 0 -- -- 91
2020-10-23 20:00:00 10.2 6 Noroeste 13 Norte 0 -- -- 92
2020-10-23 19:00:00 10.9 6 Noroeste 12 Norte 0 -- -- 89
2020-10-23 18:00:00 12.9 5 Noroeste 10 Noroeste 0 -- -- 79
2020-10-23 17:00:00 12.8 4 Oeste 12 Norte 0 -- -- 84
2020-10-23 16:00:00 12.1 9 Noroeste 16 Noroeste 0 -- -- 86
2020-10-23 15:00:00 11.7 4 Noroeste 25 Noroeste 0.2 -- -- 90
2020-10-23 14:00:00 14.1 5 Sur 19 Noroeste 0 -- -- 58
2020-10-23 13:00:00 14.7 10 Noroeste 20 Noroeste 0 -- -- 63
2020-10-23 12:00:00 12.7 9 Sudoeste 21 Oeste 0 -- -- 64
2020-10-23 11:00:00 10 4 Sur 14 Sur 0 -- -- 76
2020-10-23 10:00:00 8.2 2 Nordeste 8 Sur 0 -- -- 88
2020-10-23 09:00:00 8.7 3 Sur 12 Sudeste 0 -- -- 86
2020-10-23 08:00:00 10 3 Este 8 Sudeste 0 -- -- 85
2020-10-23 07:00:00 11.3 4 Sur 13 Sudeste 0 -- -- 80
2020-10-23 06:00:00 10.6 3 Sur 9 Sudeste 0 -- -- 88
2020-10-23 05:00:00 10.5 4 Sudeste 8 Este 0.2 -- -- 91
2020-10-23 04:00:00 11.5 3 Sudoeste 13 Sudeste 0 -- -- 86
2020-10-23 03:00:00 11.2 5 Sudeste 9 Sudeste 0 -- -- 86
2020-10-23 02:00:00 11.3 3 Sudeste 10 Este 0 -- -- 85
2020-10-23 01:00:00 10.9 2 Sudeste 6 Este 0 -- -- 84
2020-10-23 00:00:00 10.9 3 Sudeste 10 Este 0 -- -- 80
2020-10-22 23:00:00 13.7 5 Norte 21 Sudeste 0 -- -- 68
2020-10-22 22:00:00 14.2 6 Sudeste 29 Sudeste 0 -- -- 65
2020-10-22 21:00:00 14.4 9 Este 24 Este 0 -- -- 64
2020-10-22 20:00:00 14.5 6 Sudeste 19 Sudeste 0 -- -- 63
2020-10-22 19:00:00 15 8 Sudeste 37 Sudeste 0 -- -- 61
2020-10-22 18:00:00 16.6 5 Sudeste 24 Sudeste 0 -- -- 62
2020-10-22 17:00:00 17 11 Sudeste 33 Sudeste 0 -- -- 62
2020-10-22 16:00:00 16.3 11 Sur 27 Sudeste 0 -- -- 65
2020-10-22 15:00:00 16.4 10 Sur 24 Sudeste 0 -- -- 63
2020-10-22 14:00:00 15.4 10 Sudeste 21 Sur 0 -- -- 69
2020-10-22 13:00:00 15 5 Sudeste 36 Sudeste 0 -- -- 68
2020-10-22 12:00:00 15 19 Sudeste 46 Sudeste 0 -- -- 67
2020-10-22 11:00:00 14.4 19 Sudeste 42 Sudeste 0 -- -- 69
2020-10-22 10:00:00 13.8 20 Sudeste 32 Sudeste 0 -- -- 70
2020-10-22 09:00:00 13.5 14 Sudeste 37 Sudeste 0 -- -- 70
2020-10-22 08:00:00 -- -- -- -- -- -- -- -- --
2020-10-22 07:00:00 -- -- -- -- -- -- -- -- --
2020-10-22 06:00:00 -- -- -- -- -- -- -- -- --
2020-10-22 05:00:00 -- -- -- -- -- -- -- -- --
2020-10-22 04:00:00 -- -- -- -- -- -- -- -- --
2020-10-22 03:00:00 -- -- -- -- -- -- -- -- --
2020-10-22 02:00:00 -- -- -- -- -- -- -- -- --
2020-10-22 01:00:00 -- -- -- -- -- -- -- -- --
2020-10-22 00:00:00 -- -- -- -- -- -- -- -- --
2020-10-21 23:00:00 -- -- -- -- -- -- -- -- --
2020-10-21 22:00:00 -- -- -- -- -- -- -- -- --
2020-10-21 21:00:00 14.5 -- -- -- -- 0 -- -- --
2020-10-21 20:00:00 14.8 21 Sudeste 48 Sudeste 0 -- -- 64
2020-10-21 19:00:00 15.2 5 Sudeste 35 Sudeste 0 -- -- 68
2020-10-21 18:00:00 -- -- -- -- -- -- -- -- --
2020-10-21 17:00:00 -- -- -- -- -- -- -- -- --
2020-10-21 16:00:00 -- -- -- -- -- -- -- -- --
2020-10-21 15:00:00 -- -- -- -- -- -- -- -- --
2020-10-21 14:00:00 -- -- -- -- -- -- -- -- --
2020-10-21 13:00:00 -- -- -- -- -- -- -- -- --
2020-10-21 12:00:00 -- -- -- -- -- -- -- -- --
2020-10-21 11:00:00 -- -- -- -- -- -- -- -- --
2020-10-21 10:00:00 -- -- -- -- -- -- -- -- --
2020-10-21 09:00:00 -- -- -- -- -- -- -- -- --
2020-10-21 08:00:00 -- -- -- -- -- -- -- -- --
2020-10-21 07:00:00 -- -- -- -- -- -- -- -- --
2020-10-21 06:00:00 -- -- -- -- -- -- -- -- --
2020-10-21 05:00:00 -- -- -- -- -- -- -- -- --
2020-10-21 04:00:00 -- -- -- -- -- -- -- -- --
2020-10-21 03:00:00 -- -- -- -- -- -- -- -- --
2020-10-21 02:00:00 -- -- -- -- -- -- -- -- --
2020-10-21 01:00:00 -- -- -- -- -- -- -- -- --
2020-10-21 00:00:00 -- -- -- -- -- -- -- -- --
2020-10-20 23:00:00 -- -- -- -- -- -- -- -- --
2020-10-20 22:00:00 -- -- -- -- -- -- -- -- --
2020-10-20 21:00:00 -- -- -- -- -- -- -- -- --
2020-10-20 20:00:00 15.9 50 Sudeste 114 Sudeste 3.2 -- -- 75
2020-10-20 19:00:00 16 50 Sudeste 107 Sur 1.8 -- -- 72
2020-10-20 18:00:00 15.6 27 Sudeste 59 Este 2 -- -- 78
2020-10-20 17:00:00 16.3 32 Sudeste 68 Sudeste 0 -- -- 74
2020-10-20 16:00:00 16.2 28 Sudeste 54 Sudeste 0 -- -- 75
2020-10-20 15:00:00 16.5 16 Sudeste 59 Sudeste 0 -- -- 73
2020-10-20 14:00:00 15.8 20 Sudeste 44 Sudeste 0 -- -- 74
2020-10-20 13:00:00 16 24 Sudeste 59 Sudeste 0 -- -- 73
2020-10-20 12:00:00 15.4 30 Sudeste 59 Sudeste 0 -- -- 75
2020-10-20 11:00:00 15 24 Sudeste 51 Sudeste 0 -- -- 72
2020-10-20 10:00:00 15.1 29 Sudeste 53 Sur 0.2 -- -- 69
2020-10-20 09:00:00 15.4 29 Sudeste 87 Sudeste 0.2 -- -- 67
2020-10-20 08:00:00 15.5 34 Sudeste 80 Sudeste 0 -- -- 64
2020-10-20 07:00:00 16.2 27 Sudeste 81 Sudeste 0 -- -- 63
2020-10-20 06:00:00 16.9 53 Sudeste 91 Sudeste 0 -- -- 61
2020-10-20 05:00:00 17.6 55 Sudeste 84 Sudeste 0 -- -- 52
2020-10-20 04:00:00 16.6 16 Sur 53 Sur 0 -- -- 56
2020-10-20 03:00:00 15.4 13 Sudeste 42 Sudoeste 0 -- -- 62
2020-10-20 02:00:00 16.3 19 Sur 59 Sudeste 0 -- -- 57
2020-10-20 01:00:00 18 24 Sudeste 53 Sur 0 -- -- 48
2020-10-20 00:00:00 18.6 14 Sur 53 Sudeste 0 -- -- 44
2020-10-19 23:00:00 19.1 12 Sudeste 66 Sudeste 0 -- -- 42
2020-10-19 22:00:00 19.8 23 Sudeste 54 Sur 0 -- -- 38
2020-10-19 21:00:00 20.4 14 Sur 70 Sudeste 0 -- -- 35
2020-10-19 20:00:00 22 14 Sudeste 56 Sudeste 0 -- -- 30
2020-10-19 19:00:00 22.1 9 Sudeste 58 Sudeste 0 -- -- 33
2020-10-19 18:00:00 21.7 12 Sudeste 54 Sudeste 0 -- -- 33
2020-10-19 17:00:00 21.6 12 Sudeste 43 Este 0 -- -- 33
2020-10-19 16:00:00 21.7 19 Sur 48 Sudeste 0 -- -- 30
2020-10-19 15:00:00 20.8 14 Sudeste 54 Sudoeste 0 -- -- 34
2020-10-19 14:00:00 18.9 30 Sudeste 73 Sudeste 0 -- -- 38
2020-10-19 13:00:00 18.8 40 Sudeste 69 Este 0 -- -- 36
2020-10-19 12:00:00 19.5 29 Sudeste 63 Sudeste 0 -- -- 32
2020-10-19 11:00:00 18 24 Sur 62 Sur 0 -- -- 33
2020-10-19 10:00:00 17.4 30 Sudeste 56 Sur 0 -- -- 33
2020-10-19 09:00:00 16.7 26 Sudeste 50 Sudeste 0 -- -- 36
2020-10-19 08:00:00 17.5 28 Sudeste 48 Sudeste 0 -- -- 33
2020-10-19 07:00:00 17.2 21 Sudeste 45 Sur 0 -- -- 36
2020-10-19 06:00:00 17 7 Sur 36 Sudeste 0 -- -- 43
2020-10-19 05:00:00 17 16 Sudeste 37 Sudeste 0 -- -- 41
2020-10-19 04:00:00 17.2 15 Sudeste 34 Sudeste 0 -- -- 41
2020-10-19 03:00:00 16.9 11 Sudeste 28 Este 0 -- -- 42
2020-10-19 02:00:00 16.9 9 Sur 28 Sudeste 0 -- -- 44
2020-10-19 01:00:00 13.9 3 Nordeste 9 Norte 0 -- -- 56
2020-10-19 00:00:00 13.4 3 Nordeste 8 Este 0 -- -- 61
2020-10-18 23:00:00 14.4 3 Sudeste 10 Sudeste 0 -- -- 58
2020-10-18 22:00:00 12.4 2 Este 6 Sudeste 0 -- -- 67
2020-10-18 21:00:00 12.7 3 Sudeste 11 Sudeste 0 -- -- 66
2020-10-18 20:00:00 12.6 4 Sudeste 10 Sudeste 0 -- -- 70
2020-10-18 19:00:00 14.1 4 Sudeste 8 Sudeste 0 -- -- 76
2020-10-18 18:00:00 18.5 2 Sur 10 Oeste 0 -- -- 62
2020-10-18 17:00:00 20.5 6 Noroeste 14 Noroeste 0 -- -- 55
2020-10-18 16:00:00 21 7 Noroeste 12 Noroeste 0 -- -- 46
2020-10-18 15:00:00 20.6 5 Noroeste 10 Oeste 0 -- -- 47
2020-10-18 14:00:00 20 5 Noroeste 11 Noroeste 0 -- -- 50
2020-10-18 13:00:00 18.6 4 Noroeste 9 Noroeste 0 -- -- 58
2020-10-18 12:00:00 17.8 3 Sudeste 11 Este 0 -- -- 59
2020-10-18 11:00:00 13.7 6 Sudeste 13 Sudeste 0 -- -- 67
2020-10-18 10:00:00 10.8 4 Sudeste 8 Sur 0 -- -- 81
2020-10-18 09:00:00 9.9 3 Sudeste 8 Este 0 -- -- 80
2020-10-18 08:00:00 9.7 3 Sudeste 7 Sur 0 -- -- 79
2020-10-18 07:00:00 9.9 4 Sudeste 8 Este 0 -- -- 77
2020-10-18 06:00:00 9.4 2 Sudeste 8 Este 0 -- -- 79
2020-10-18 05:00:00 9.5 3 Sudeste 13 Sudeste 0 -- -- 78
2020-10-18 04:00:00 8.8 3 Sudeste 6 Sur 0 -- -- 81
2020-10-18 03:00:00 9.1 4 Sudeste 11 Sur 0 -- -- 80
2020-10-18 02:00:00 9.2 5 Sudeste 12 Sudeste 0 -- -- 83
2020-10-18 01:00:00 8.5 3 Sudeste 9 Sudeste 0 -- -- 88
2020-10-18 00:00:00 8.5 3 Sudeste 6 Este 0 -- -- 87
2020-10-17 23:00:00 9 2 Sudeste 8 Sur 0 -- -- 84
2020-10-17 22:00:00 8.8 3 Sudeste 7 Sudeste 0 -- -- 80
2020-10-17 21:00:00 8.6 0 Calma 6 Sudeste 0 -- -- 80
2020-10-17 20:00:00 9.5 2 Sudeste 11 Sudeste 0 -- -- 77
2020-10-17 19:00:00 11.6 4 Sudeste 11 Sudeste 0 -- -- 72
2020-10-17 18:00:00 15 3 Oeste 9 Noroeste 0 -- -- 60
2020-10-17 17:00:00 14.9 4 Noroeste 12 Noroeste 0 -- -- 61
2020-10-17 16:00:00 15.5 7 Noroeste 15 Noroeste 0 -- -- 50
2020-10-17 15:00:00 16.3 6 Noroeste 15 Noroeste 0 -- -- 49
2020-10-17 14:00:00 15.8 8 Oeste 15 Oeste 0 -- -- 53
2020-10-17 13:00:00 15.5 2 Noroeste 9 Noroeste 0 -- -- 57
2020-10-17 12:00:00 13.4 3 Sur 5 Sudeste 0 -- -- 59
2020-10-17 11:00:00 9.7 3 Sur 6 Sur 0 -- -- 76
2020-10-17 10:00:00 7.9 3 Sudeste 9 Sudeste 0 -- -- 79
2020-10-17 09:00:00 7.1 3 Sudeste 10 Sur 0 -- -- 79
2020-10-17 08:00:00 8.3 8 Sudeste 11 Sudeste 0 -- -- 72
2020-10-17 07:00:00 8.4 7 Sur 12 Sudeste 0 -- -- 76
2020-10-17 06:00:00 8.1 6 Sudeste 11 Sudeste 0 -- -- 76
2020-10-17 05:00:00 7.7 4 Sudeste 13 Sudeste 0 -- -- 75
2020-10-17 04:00:00 7.6 4 Sudeste 12 Sudeste 0 -- -- 74
2020-10-17 03:00:00 7.7 7 Sudeste 13 Sur 0 -- -- 73
2020-10-17 02:00:00 7.8 6 Sudeste 11 Sudeste 0 -- -- 74
2020-10-17 01:00:00 6.9 4 Sudeste 12 Sudeste 0 -- -- 80
2020-10-17 00:00:00 6.5 5 Sudeste 9 Sudeste 0 -- -- 83
2020-10-16 23:00:00 5.8 4 Sudeste 8 Este 0 -- -- 85
2020-10-16 22:00:00 6.6 4 Este 10 Este 0 -- -- 81
2020-10-16 21:00:00 6.8 5 Sudeste 8 Este 0 -- -- 85
2020-10-16 20:00:00 8 3 Sudeste 5 Sur 0 -- -- 92
2020-10-16 19:00:00 8.5 2 Sudeste 6 Sur 0 -- -- 89
2020-10-16 18:00:00 11.2 5 Noroeste 10 Noroeste 0 -- -- 77
2020-10-16 17:00:00 11.3 5 Noroeste 9 Noroeste 0 -- -- 76
2020-10-16 16:00:00 10.3 5 Noroeste 8 Noroeste 0 -- -- 80
2020-10-16 15:00:00 9.7 5 Noroeste 8 Noroeste 0 -- -- 77
2020-10-16 14:00:00 9.2 5 Noroeste 10 Noroeste 0 -- -- 80
2020-10-16 13:00:00 9.6 4 Noroeste 9 Noroeste 0 -- -- 75
2020-10-16 12:00:00 9.5 4 Sudeste 9 Noroeste 0 -- -- 78
2020-10-16 11:00:00 5.2 3 Sudeste 9 Sudeste 0 -- -- 94
2020-10-16 10:00:00 4.8 5 Sudeste 9 Sudeste 0 -- -- 92
2020-10-16 09:00:00 4.1 3 Sudeste 11 Este 0 -- -- 97
2020-10-16 08:00:00 4.6 5 Sudeste 7 Este 0 -- -- 97
2020-10-16 07:00:00 4.4 3 Sudeste 6 Sudeste 0 -- -- 97
2020-10-16 06:00:00 5.3 4 Este 7 Este 0 -- -- 99
2020-10-16 05:00:00 6.1 0 Calma 3 Este 0 -- -- 100
2020-10-16 04:00:00 5.9 0 Calma 4 Sudeste 0 -- -- 100
2020-10-16 03:00:00 5.7 0 Calma 6 Este 0 -- -- 100
2020-10-16 02:00:00 5.8 0 Calma -- -- 0 -- -- 100
2020-10-16 01:00:00 5.9 3 Norte 5 Nordeste 0.8 -- -- 100
2020-10-16 00:00:00 5.7 0 Calma 4 Sudeste 0.2 -- -- 99
2020-10-15 23:00:00 6.3 0 Calma 3 Nordeste 0 -- -- 100
2020-10-15 22:00:00 6.1 0 Calma 5 Sur 0 -- -- 100
2020-10-15 21:00:00 6.1 3 Sur 5 Norte 0 -- -- 99
2020-10-15 20:00:00 6.3 6 Norte 22 Norte 0.4 -- -- 93
2020-10-15 19:00:00 7.1 4 Noroeste 14 Noroeste 0 -- -- 97
2020-10-15 18:00:00 7.2 12 Noroeste 24 Noroeste 0 -- -- 94
2020-10-15 17:00:00 7.5 9 Noroeste 19 Noroeste 0 -- -- 90
2020-10-15 16:00:00 6.4 3 Noroeste 16 Noroeste 0.4 -- -- 95
2020-10-15 15:00:00 6.7 4 Sudeste 15 Este 0.4 -- -- 89
2020-10-15 14:00:00 6.3 3 Nordeste 16 Noroeste 2 -- -- 94
2020-10-15 13:00:00 7 2 Noroeste 17 Noroeste 0 -- -- 91
2020-10-15 12:00:00 7.2 7 Norte 15 Norte 0 -- -- 85
2020-10-15 11:00:00 7.1 11 Noroeste 28 Norte 0.2 -- -- 100
2020-10-15 10:00:00 6.7 6 Noroeste 13 Noroeste 0 -- -- 100
2020-10-15 09:00:00 6.5 0 Calma 5 Noroeste 0 -- -- 100
2020-10-15 08:00:00 6.3 3 Noroeste 6 Noroeste 0.4 -- -- 100
2020-10-15 07:00:00 6.2 4 Sudeste 8 Sudeste 3.6 -- -- 100
2020-10-15 06:00:00 6.2 0 Calma 3 Sur 0.4 -- -- 100
2020-10-15 05:00:00 6.3 0 Calma 12 Norte 1 -- -- 100
2020-10-15 04:00:00 6.6 4 Noroeste 9 Noroeste 1.4 -- -- 100
2020-10-15 03:00:00 6.5 2 Sur 5 Sudeste 0.4 -- -- 100
2020-10-15 02:00:00 6.5 0 Calma 15 Norte 1.4 -- -- 100
2020-10-15 01:00:00 6.7 0 Calma 6 Noroeste 0 -- -- 100
2020-10-15 00:00:00 6.5 4 Noroeste 11 Noroeste 0.4 -- -- 100
2020-10-14 23:00:00 6.6 5 Norte 13 Norte 2.8 -- -- 100
2020-10-14 22:00:00 6.6 5 Norte 14 Noroeste 1.4 -- -- 100
2020-10-14 21:00:00 6.6 0 Calma 17 Noroeste 2.8 -- -- 100
2020-10-14 20:00:00 6.8 2 Norte 15 Norte 0 -- -- 100
2020-10-14 19:00:00 6.9 5 Noroeste 18 Noroeste 0.6 -- -- 100
2020-10-14 18:00:00 6.9 9 Noroeste 27 Norte 2 -- -- 100
2020-10-14 17:00:00 6.7 17 Noroeste 40 Noroeste 8.8 -- -- 100
2020-10-14 16:00:00 7.3 15 Noroeste 31 Noroeste 2 -- -- 99
2020-10-14 15:00:00 6.8 11 Noroeste 46 Noroeste 2 -- -- 99
2020-10-14 14:00:00 6.8 8 Noroeste 36 Noroeste 1.6 -- -- 97
2020-10-14 13:00:00 6.8 13 Noroeste 42 Noroeste 3.4 -- -- 95
2020-10-14 12:00:00 7.8 12 Noroeste 42 Norte 2.2 -- -- 98
2020-10-14 11:00:00 7.3 15 Norte 31 Norte 1.4 -- -- 96
2020-10-14 10:00:00 7.2 15 Norte 32 Norte 0 -- -- 98
2020-10-14 09:00:00 6.9 11 Noroeste 33 Norte 1.2 -- -- 99
2020-10-14 08:00:00 6.9 17 Noroeste 36 Norte 2.8 -- -- 98
2020-10-14 07:00:00 7.1 12 Noroeste 31 Noroeste 1.8 -- -- 99
2020-10-14 06:00:00 7 9 Noroeste 35 Noroeste 5.4 -- -- 100
2020-10-14 05:00:00 7.1 10 Noroeste 30 Noroeste 1.6 -- -- 99
2020-10-14 04:00:00 7.5 14 Norte 30 Noroeste 2.6 -- -- 98
2020-10-14 03:00:00 7.4 14 Norte 37 Noroeste 3.2 -- -- 100
2020-10-14 02:00:00 7.5 19 Norte 41 Noroeste 1 -- -- 100
2020-10-14 01:00:00 7.6 18 Noroeste 38 Noroeste 3.4 -- -- 100
2020-10-14 00:00:00 7.5 10 Noroeste 24 Noroeste 2.6 -- -- 99
2020-10-13 23:00:00 7.5 7 Norte 33 Norte 2 -- -- 100
2020-10-13 22:00:00 7.7 14 Norte 26 Norte 3.4 -- -- 100
2020-10-13 21:00:00 7.7 14 Norte 34 Norte 1.2 -- -- 100
2020-10-13 20:00:00 8.1 11 Noroeste 30 Norte 2 -- -- 100
2020-10-13 19:00:00 8.3 12 Norte 25 Norte 0.8 -- -- 100
2020-10-13 18:00:00 8.3 12 Noroeste 34 Noroeste 1 -- -- 100
2020-10-13 17:00:00 8.5 12 Norte 36 Noroeste 1.8 -- -- 100
2020-10-13 16:00:00 8.9 19 Norte 31 Noroeste 2.2 -- -- 99
2020-10-13 15:00:00 9.6 12 Norte 22 Norte 1.6 -- -- 100
2020-10-13 14:00:00 9.3 17 Norte 29 Noroeste 0.8 -- -- 99
2020-10-13 13:00:00 9.4 10 Noroeste 22 Norte 0.8 -- -- 100
2020-10-13 12:00:00 9.2 9 Noroeste 21 Noroeste 1.8 -- -- 100
2020-10-13 11:00:00 9.2 5 Noroeste 16 Noroeste 1.2 -- -- 100
2020-10-13 10:00:00 9.1 8 Noroeste 27 Norte 1 -- -- 100
2020-10-13 09:00:00 9.7 11 Noroeste 22 Noroeste 2.6 -- -- 100
2020-10-13 08:00:00 10 12 Norte 27 Noroeste 1.6 -- -- 100
2020-10-13 07:00:00 10.3 8 Noroeste 18 Noroeste 2.2 -- -- 100
2020-10-13 06:00:00 10.8 8 Noroeste 16 Noroeste 1 -- -- 100
2020-10-13 05:00:00 11.4 8 Noroeste 21 Noroeste 1.6 -- -- 100
2020-10-13 04:00:00 12.1 8 Noroeste 24 Noroeste 1.2 -- -- 100
2020-10-13 03:00:00 12.4 12 Noroeste 40 Norte 2.8 -- -- 100
2020-10-13 02:00:00 12.7 12 Noroeste 33 Noroeste 3.4 -- -- 100
2020-10-13 01:00:00 -- -- -- -- -- -- -- -- --
2020-10-13 00:00:00 12.6 17 Norte 37 Norte 6 -- -- 100
2020-10-12 23:00:00 11.5 2 Sur 8 Norte 4.4 -- -- 100
2020-10-12 22:00:00 11 5 Sudeste 7 Este 3 -- -- 100
2020-10-12 21:00:00 11.2 5 Norte 14 Nordeste 0.6 -- -- 96
2020-10-12 20:00:00 11 4 Sudeste 15 Sudeste 0.2 -- -- 94
2020-10-12 19:00:00 12.1 6 Norte 16 Norte 0 -- -- 83
2020-10-12 18:00:00 12.7 3 Sur 9 Norte 0 -- -- 76
2020-10-12 17:00:00 12.2 4 Norte 15 Noroeste 0 -- -- 73
2020-10-12 16:00:00 13.1 7 Noroeste 15 Norte 0 -- -- 71
2020-10-12 15:00:00 11.6 5 Norte 19 Norte 0 -- -- 78
2020-10-12 14:00:00 10 8 Norte 20 Norte 0 -- -- 85
2020-10-12 13:00:00 9.6 10 Noroeste 18 Norte 0 -- -- 89
2020-10-12 12:00:00 9.4 5 Noroeste 17 Noroeste 0 -- -- 94
2020-10-12 11:00:00 8.6 5 Noroeste 18 Norte 0.2 -- -- 100
2020-10-12 10:00:00 8.2 4 Noroeste 9 Noroeste 0 -- -- 100
2020-10-12 09:00:00 7.8 3 Noroeste 17 Noroeste 0 -- -- 100
2020-10-12 08:00:00 7.8 4 Noroeste 22 Norte 0 -- -- 100
2020-10-12 07:00:00 7.8 6 Noroeste 16 Noroeste 0.4 -- -- 100
2020-10-12 06:00:00 7.7 4 Noroeste 23 Noroeste 0.2 -- -- 100
2020-10-12 05:00:00 7.5 6 Noroeste 15 Norte 0.6 -- -- 100
2020-10-12 04:00:00 -- -- -- -- -- -- -- -- --
2020-10-12 03:00:00 7.5 11 Noroeste 27 Noroeste 0.4 -- -- 96
2020-10-12 02:00:00 7.6 8 Noroeste 22 Norte 0.4 -- -- 100
2020-10-12 01:00:00 7.5 10 Noroeste 31 Noroeste 2.6 -- -- 100
2020-10-12 00:00:00 7.3 8 Noroeste 40 Noroeste 0.6 -- -- 97
2020-10-11 23:00:00 7.6 12 Noroeste 31 Norte 0 -- -- 100
2020-10-11 22:00:00 7.4 14 Noroeste 42 Norte 2.4 -- -- 99
2020-10-11 21:00:00 -- -- -- -- -- -- -- -- --
2020-10-11 20:00:00 -- -- -- -- -- -- -- -- --
2020-10-11 19:00:00 7.5 18 Norte 41 Noroeste 2.4 -- -- 99
2020-10-11 18:00:00 7.7 12 Noroeste 31 Noroeste 1.2 -- -- 99
2020-10-11 17:00:00 7.8 12 Norte 35 Norte 0.6 -- -- 97
2020-10-11 16:00:00 8.1 12 Noroeste 32 Norte 0.6 -- -- 96
2020-10-11 15:00:00 8.3 12 Noroeste 27 Noroeste 0.4 -- -- 93
2020-10-11 14:00:00 8.4 14 Noroeste 30 Noroeste 0 -- -- 91
2020-10-11 13:00:00 8.2 9 Noroeste 34 Norte 1 -- -- 96
2020-10-11 12:00:00 8.1 7 Noroeste 22 Norte 0.2 -- -- 100
2020-10-11 11:00:00 7.5 4 Noroeste 12 Noroeste 1 -- -- 100
2020-10-11 10:00:00 7.1 6 Noroeste 15 Norte 0.2 -- -- 100
2020-10-11 09:00:00 6.7 4 Noroeste 12 Norte 0.8 -- -- 100
2020-10-11 08:00:00 6.8 3 Noroeste 8 Norte 1.2 -- -- 100
2020-10-11 07:00:00 6.9 2 Sudeste 5 Sudeste 0 -- -- 99
2020-10-11 06:00:00 7.1 5 Norte 19 Norte 0.6 -- -- 99
2020-10-11 05:00:00 7.3 7 Noroeste 18 Noroeste 0 -- -- 99
2020-10-11 04:00:00 7.5 2 Noroeste 19 Noroeste 0 -- -- 100
2020-10-11 03:00:00 7.7 6 Noroeste 22 Norte 0 -- -- 99
2020-10-11 02:00:00 7.9 8 Noroeste 17 Noroeste 0 -- -- 98
2020-10-11 01:00:00 8.2 8 Noroeste 19 Noroeste 0 -- -- 99
2020-10-11 00:00:00 8.4 10 Noroeste 21 Noroeste 1.4 -- -- 100
2020-10-10 23:00:00 8.5 2 Sudeste 9 Norte 0.4 -- -- 100
2020-10-10 22:00:00 8.7 6 Norte 16 Noroeste 0.2 -- -- 95
2020-10-10 21:00:00 8.9 7 Norte 15 Norte 0.8 -- -- 100
2020-10-10 20:00:00 8.9 5 Noroeste 23 Noroeste 1.2 -- -- 100
2020-10-10 19:00:00 9.5 3 Noroeste 8 Noroeste 1.2 -- -- 99
2020-10-10 18:00:00 9.5 4 Norte 22 Noroeste 0.4 -- -- 96
2020-10-10 17:00:00 9.8 6 Noroeste 16 Noroeste 2.2 -- -- 99
2020-10-10 16:00:00 10.6 10 Noroeste 17 Noroeste 0 -- -- 94
2020-10-10 15:00:00 12.1 7 Noroeste 17 Oeste 0 -- -- 84
2020-10-10 14:00:00 10.6 8 Noroeste 17 Noroeste 0.4 -- -- 98
2020-10-10 13:00:00 9.6 6 Noroeste 12 Norte 0 -- -- 97
2020-10-10 12:00:00 9.3 3 Norte 17 Noroeste 0.2 -- -- 100
2020-10-10 11:00:00 9.1 7 Norte 17 Noroeste 1 -- -- 100
2020-10-10 10:00:00 9.1 16 Noroeste 28 Noroeste 0.4 -- -- 100
2020-10-10 09:00:00 10.6 7 Noroeste 15 Noroeste 0.4 -- -- 100
2020-10-10 08:00:00 10.9 6 Noroeste 13 Norte 0 -- -- 100
2020-10-10 07:00:00 11.5 6 Noroeste 17 Noroeste 1.4 -- -- 100
2020-10-10 06:00:00 11.5 5 Norte 14 Norte 0.6 -- -- 100
2020-10-10 05:00:00 11.4 6 Norte 15 Norte 2.2 -- -- 100
2020-10-10 04:00:00 11.3 2 Norte 8 Sudeste 0.4 -- -- 99
2020-10-10 03:00:00 11 3 Sur 6 Sudeste 0 -- -- 99
2020-10-10 02:00:00 11 0 Calma 5 Sudeste 0 -- -- 98
2020-10-10 01:00:00 11.3 4 Sudeste 6 Sur 0 -- -- 100
2020-10-10 00:00:00 11.4 0 Calma 3 Este 0 -- -- 98
2020-10-09 23:00:00 12.3 0 Calma 3 Sudeste 0 -- -- 100
2020-10-09 22:00:00 12.4 2 Sur 3 Sur 0 -- -- 100
2020-10-09 21:00:00 12.6 0 Calma 7 Noroeste 0 -- -- 100
2020-10-09 20:00:00 12.8 4 Noroeste 12 Noroeste 0 -- -- 100
2020-10-09 19:00:00 13.2 5 Noroeste 10 Noroeste 0 -- -- 100
2020-10-09 18:00:00 13.7 8 Noroeste 12 Noroeste 0 -- -- 97
2020-10-09 17:00:00 14.2 4 Noroeste 8 Norte 0 -- -- 96
2020-10-09 16:00:00 13.9 3 Noroeste 10 Noroeste 0 -- -- 98
2020-10-09 15:00:00 13.8 8 Noroeste 13 Noroeste 0 -- -- 96
2020-10-09 14:00:00 14.3 4 Noroeste 9 Noroeste 0.2 -- -- 95
2020-10-09 13:00:00 13.7 4 Noroeste 9 Noroeste 0 -- -- 99
2020-10-09 12:00:00 13.7 2 Noroeste 6 Noroeste 0 -- -- 97
2020-10-09 11:00:00 13.4 0 Calma 5 Sudeste 0 -- -- 96
2020-10-09 10:00:00 12.8 0 Calma 9 Sur 0 -- -- 97
2020-10-09 09:00:00 12.2 4 Sudeste 9 Sudeste 0 -- -- 99
2020-10-09 08:00:00 11.5 8 Sur 13 Sur 0 -- -- 99
2020-10-09 07:00:00 12.2 3 Sur 10 Sur 0 -- -- 98
2020-10-09 06:00:00 12.7 3 Sudoeste 10 Sur 0 -- -- 96
2020-10-09 05:00:00 12.8 2 Este 12 Sur 0 -- -- 98
2020-10-09 04:00:00 12.8 7 Sudeste 13 Sudeste 0 -- -- 97
2020-10-09 03:00:00 12.4 3 Sudeste 10 Sur 0 -- -- 98
2020-10-09 02:00:00 12.9 5 Sudeste 10 Sudeste 0 -- -- 97
2020-10-09 01:00:00 13.3 5 Sudeste 10 Sudeste 0 -- -- 97
2020-10-09 00:00:00 13.8 6 Sudeste 10 Sudeste 0 -- -- 97
2020-10-08 23:00:00 14.5 0 Calma 6 Sudeste 0 -- -- 97
2020-10-08 22:00:00 15 0 Calma 9 Sudeste 0 -- -- 98
2020-10-08 21:00:00 15.4 2 Noroeste 9 Noroeste 0 -- -- 99
2020-10-08 20:00:00 16.2 0 Calma 8 Noroeste 0 -- -- 97
2020-10-08 19:00:00 17.4 0 Calma 8 Noroeste 0 -- -- 92
2020-10-08 18:00:00 18.8 6 Noroeste 12 Noroeste 0 -- -- 88
2020-10-08 17:00:00 18.9 4 Noroeste 7 Noroeste 0 -- -- 84
2020-10-08 16:00:00 18.5 4 Noroeste 10 Noroeste 0 -- -- 88
2020-10-08 15:00:00 18.4 5 Noroeste 9 Noroeste 0 -- -- 83
2020-10-08 14:00:00 18.9 5 Oeste 10 Noroeste 0 -- -- 82
2020-10-08 13:00:00 18.3 6 Noroeste 8 Oeste 0 -- -- 82
2020-10-08 12:00:00 17.3 0 Calma 6 Noroeste 0 -- -- 78
2020-10-08 11:00:00 14.8 0 Calma 6 Sudeste 0 -- -- 93
2020-10-08 10:00:00 12.1 3 Sudeste 7 Sudeste 0 -- -- 98
2020-10-08 09:00:00 10.4 3 Sudeste 7 Sudeste 0 -- -- 97
2020-10-08 08:00:00 10.5 3 Sudeste 11 Sudeste 0 -- -- 95
2020-10-08 07:00:00 10.4 2 Sudeste 9 Sudeste 0 -- -- 96
2020-10-08 06:00:00 10.8 2 Sudeste 7 Este 0 -- -- 97
2020-10-08 05:00:00 10.8 0 Calma 7 Este 0 -- -- 97
2020-10-08 04:00:00 10.7 3 Sudeste 7 Sur 0 -- -- 98
2020-10-08 03:00:00 10.5 3 Sudeste 7 Sur 0 -- -- 98
2020-10-08 02:00:00 11 4 Sudeste 9 Sudeste 0 -- -- 97
2020-10-08 01:00:00 12.1 4 Sudeste 8 Sudeste 0 -- -- 96
2020-10-08 00:00:00 12.8 0 Calma 5 Sudeste 0 -- -- 100
2020-10-07 23:00:00 12.8 0 Calma 5 Este 0 -- -- 100
2020-10-07 22:00:00 12.7 2 Este 4 Este 0 -- -- 100
2020-10-07 21:00:00 13 0 Calma 6 Noroeste 0.4 -- -- 100
2020-10-07 20:00:00 13.3 0 Calma 10 Oeste 0.4 -- -- 99
2020-10-07 19:00:00 13.9 3 Noroeste 11 Noroeste 0.4 -- -- 99
2020-10-07 18:00:00 14.5 4 Norte 11 Noroeste 0 -- -- 96
2020-10-07 17:00:00 15.2 4 Noroeste 6 Noroeste 0 -- -- 97
2020-10-07 16:00:00 14.4 4 Noroeste 9 Noroeste 0 -- -- 97
2020-10-07 15:00:00 14.3 5 Noroeste 18 Norte 0.4 -- -- 97
2020-10-07 14:00:00 15.1 7 Noroeste 16 Noroeste 0.6 -- -- 98
2020-10-07 13:00:00 14.8 7 Noroeste 18 Norte 0.2 -- -- 98
2020-10-07 12:00:00 14.5 10 Norte 25 Norte 0.2 -- -- 96
2020-10-07 11:00:00 14.1 4 Norte 10 Este 0.4 -- -- 99
2020-10-07 10:00:00 13.7 4 Noroeste 12 Noroeste 0.6 -- -- 100
2020-10-07 09:00:00 13.6 3 Noroeste 21 Noroeste 1.4 -- -- 100
2020-10-07 08:00:00 13.7 2 Noroeste 15 Norte 1.4 -- -- 100
2020-10-07 07:00:00 13.7 0 Calma 10 Norte 2.4 -- -- 100
2020-10-07 06:00:00 13.9 6 Norte 15 Norte 2 -- -- 99
2020-10-07 05:00:00 14 6 Norte 18 Norte 1.2 -- -- 98
2020-10-07 04:00:00 14.1 6 Norte 14 Norte 1.8 -- -- 98
2020-10-07 03:00:00 13.9 3 Norte 10 Norte 1.2 -- -- 97
2020-10-07 02:00:00 14.7 7 Norte 14 Norte 0 -- -- 90
2020-10-07 01:00:00 14.9 4 Norte 21 Oeste 0 -- -- 89
2020-10-07 00:00:00 14.8 4 Este 13 Sudeste 0 -- -- 89
2020-10-06 23:00:00 14.2 9 Sudeste 13 Sudeste 0 -- -- 100
2020-10-06 22:00:00 14.2 4 Noroeste 10 Noroeste 0 -- -- 100
2020-10-06 21:00:00 14 2 Norte 5 Este 0 -- -- 96
2020-10-06 20:00:00 15.1 4 Sudeste 13 Sudeste 0 -- -- 89
2020-10-06 19:00:00 15.7 4 Sudeste 9 Sudeste 0 -- -- 93
2020-10-06 18:00:00 15.3 2 Este 26 Noroeste 0 -- -- 94
2020-10-06 17:00:00 15.3 9 Norte 26 Noroeste 0 -- -- 94
2020-10-06 16:00:00 15.4 10 Noroeste 27 Norte 0 -- -- 93
2020-10-06 15:00:00 16.1 5 Noroeste 15 Noroeste 0 -- -- 90
2020-10-06 14:00:00 16.8 8 Norte 18 Norte 0 -- -- 84
2020-10-06 13:00:00 17.2 10 Norte 23 Norte 0 -- -- 81
2020-10-06 12:00:00 18 7 Noroeste 12 Norte 0 -- -- 76
2020-10-06 11:00:00 17.1 5 Este 15 Este 0 -- -- 80
2020-10-06 10:00:00 14.9 4 Sur 17 Sudeste 0.4 -- -- 92
2020-10-06 09:00:00 14 3 Este 13 Norte 2 -- -- 94
2020-10-06 08:00:00 13.9 3 Sudeste 11 Este 0 -- -- 91
2020-10-06 07:00:00 14 4 Sudeste 11 Sudeste 0 -- -- 87
2020-10-06 06:00:00 14.3 4 Sudeste 13 Norte 0 -- -- 84
2020-10-06 05:00:00 15 3 Sudeste 18 Sudeste 0 -- -- 82
2020-10-06 04:00:00 14.6 6 Este 10 Sudeste 0 -- -- 83
2020-10-06 03:00:00 14 4 Sudeste 13 Norte 0 -- -- 87
2020-10-06 02:00:00 14.7 8 Norte 28 Norte 0 -- -- 79
2020-10-06 01:00:00 14.9 11 Norte 25 Norte 0 -- -- 75
2020-10-06 00:00:00 12.6 3 Sudeste 11 Sur 0 -- -- 81
2020-10-05 23:00:00 13.1 8 Sudeste 13 Sudeste 0 -- -- 70
2020-10-05 22:00:00 12.4 4 Sudeste 12 Sudeste 0 -- -- 77
2020-10-05 21:00:00 11.8 3 Sudeste 6 Sudeste 0 -- -- 85
2020-10-05 20:00:00 12.3 4 Sudeste 9 Sudeste 0 -- -- 87
2020-10-05 19:00:00 12.6 3 Sur 6 Oeste 0 -- -- 88
2020-10-05 18:00:00 14.5 5 Oeste 13 Noroeste 0 -- -- 75
2020-10-05 17:00:00 14.1 6 Noroeste 15 Noroeste 0 -- -- 78
2020-10-05 16:00:00 14.9 10 Noroeste 17 Noroeste 0 -- -- 70
2020-10-05 15:00:00 14.4 10 Noroeste 20 Norte 0 -- -- 71
2020-10-05 14:00:00 13.7 8 Noroeste 15 Noroeste 0 -- -- 71
2020-10-05 13:00:00 11.6 5 Este 13 Este 0 -- -- 80
2020-10-05 12:00:00 9.8 6 Norte 25 Norte 0.2 -- -- 87
2020-10-05 11:00:00 9 12 Norte 33 Norte 0 -- -- 90
2020-10-05 10:00:00 9 12 Norte 28 Norte 0.2 -- -- 88
2020-10-05 09:00:00 8.2 9 Norte 30 Norte 0.8 -- -- 94
2020-10-05 08:00:00 7.8 10 Norte 27 Norte 3.8 -- -- 97
2020-10-05 07:00:00 8.1 19 Norte 48 Norte 1.8 -- -- 92
2020-10-05 06:00:00 7.8 15 Norte 34 Norte 2.4 -- -- 96
2020-10-05 05:00:00 8.2 15 Norte 44 Norte 1.2 -- -- 90
2020-10-05 04:00:00 8.1 9 Nordeste 32 Noroeste 0.8 -- -- 91
2020-10-05 03:00:00 8.3 17 Norte 33 Noroeste 0.4 -- -- 88
2020-10-05 02:00:00 8.6 14 Norte 33 Norte 0.2 -- -- 85
2020-10-05 01:00:00 8.3 21 Norte 49 Norte 0.6 -- -- 88
2020-10-05 00:00:00 8.5 8 Norte 25 Norte 0.6 -- -- 85
2020-10-04 23:00:00 8.4 13 Norte 50 Norte 0.2 -- -- 86
2020-10-04 22:00:00 8.3 15 Norte 64 Norte 0.8 -- -- 87
2020-10-04 21:00:00 8.6 13 Norte 42 Norte 0.4 -- -- 83
2020-10-04 20:00:00 8.9 17 Norte 45 Norte 0 -- -- 81
2020-10-04 19:00:00 8.5 19 Norte 39 Norte 0 -- -- 85
2020-10-04 18:00:00 8.5 13 Norte 32 Norte 1 -- -- 88
2020-10-04 17:00:00 8.6 14 Noroeste 42 Norte 0.2 -- -- 88
2020-10-04 16:00:00 8.7 13 Norte 44 Norte 0.2 -- -- 85
2020-10-04 15:00:00 8.1 15 Norte 49 Noroeste 0.2 -- -- 90
2020-10-04 14:00:00 7.3 24 Norte 52 Noroeste 3 -- -- 95
2020-10-04 13:00:00 7.3 30 Norte 59 Noroeste 0.6 -- -- 92
2020-10-04 12:00:00 7.9 20 Norte 46 Norte 1 -- -- 89
2020-10-04 11:00:00 7.5 19 Norte 39 Noroeste 1.2 -- -- 93
2020-10-04 10:00:00 8.2 13 Norte 39 Noroeste 0.4 -- -- 91
2020-10-04 09:00:00 9.3 18 Norte 39 Noroeste 0 -- -- 84
2020-10-04 08:00:00 8.8 17 Norte 63 Norte 1.8 -- -- 95
2020-10-04 07:00:00 8.6 10 Norte 34 Norte 7.4 -- -- 93
2020-10-04 06:00:00 9.9 9 Noroeste 35 Nordeste 1.4 -- -- 79
2020-10-04 05:00:00 10.5 10 Sudeste 32 Sudeste 0.4 -- -- 73
2020-10-04 04:00:00 11 10 Sudeste 24 Este 0 -- -- 64
2020-10-04 03:00:00 9.9 8 Sudeste 25 Sudeste 0.2 -- -- 72
2020-10-04 02:00:00 8 6 Sudeste 13 Sudeste 0 -- -- 81
2020-10-04 01:00:00 8 4 Sudeste 17 Norte 0 -- -- 87
2020-10-04 00:00:00 9.8 5 Noroeste 15 Sudeste 0 -- -- 71
2020-10-03 23:00:00 9.5 9 Sudeste 14 Sudeste 0 -- -- 75
2020-10-03 22:00:00 7.8 5 Sudeste 13 Este 0 -- -- 87
2020-10-03 21:00:00 8.7 7 Norte 12 Norte 0 -- -- 84
2020-10-03 20:00:00 9.3 6 Norte 30 Noroeste 0 -- -- 78
2020-10-03 19:00:00 9.7 16 Norte 36 Noroeste 0 -- -- 84
2020-10-03 18:00:00 12.1 16 Norte 34 Norte 0 -- -- 64
2020-10-03 17:00:00 10 17 Norte 29 Norte 0 -- -- 78
2020-10-03 16:00:00 9.3 11 Noroeste 33 Noroeste 0 -- -- 89
2020-10-03 15:00:00 8.2 10 Norte 53 Noroeste 0.8 -- -- 95
2020-10-03 14:00:00 9.4 17 Norte 53 Noroeste 0 -- -- 80
2020-10-03 13:00:00 10 21 Noroeste 52 Norte 0 -- -- 78
2020-10-03 12:00:00 8.4 25 Norte 52 Norte 0 -- -- 99
2020-10-03 11:00:00 6.8 22 Norte 46 Norte 0.2 -- -- 100
2020-10-03 10:00:00 6.5 12 Noroeste 52 Norte 6.6 -- -- 100
2020-10-03 09:00:00 6 23 Norte 61 Norte 7.2 -- -- 100
2020-10-03 08:00:00 5.6 24 Norte 65 Norte 11.2 -- -- 100
2020-10-03 07:00:00 4.9 14 Este 79 Norte 8.4 -- -- 100
2020-10-03 06:00:00 5.7 19 Norte 66 Norte 8 -- -- 100
2020-10-03 05:00:00 6.2 19 Norte 58 Norte 3.8 -- -- 97
2020-10-03 04:00:00 7.9 29 Norte 57 Noroeste 0.2 -- -- 82
2020-10-03 03:00:00 7 20 Norte 53 Noroeste 0.6 -- -- 95
2020-10-03 02:00:00 6.9 25 Norte 59 Norte 0.6 -- -- 98
2020-10-03 01:00:00 6.6 30 Norte 64 Norte 0.8 -- -- 99
2020-10-03 00:00:00 6.9 30 Norte 67 Norte 5.4 -- -- 100
2020-10-02 23:00:00 6.6 23 Norte 57 Noroeste 2.8 -- -- 97
2020-10-02 22:00:00 6.6 25 Norte 64 Norte 3.6 -- -- 94
2020-10-02 21:00:00 7.9 20 Norte 48 Norte 0 -- -- 75
2020-10-02 20:00:00 7.7 19 Norte 61 Norte 0 -- -- 75
2020-10-02 19:00:00 7.4 23 Norte 56 Noroeste 0.2 -- -- 78
2020-10-02 18:00:00 5.9 13 Norte 41 Norte 0 -- -- 93
2020-10-02 17:00:00 4.8 21 Norte 43 Norte 2.4 -- -- 97
2020-10-02 16:00:00 5.4 21 Norte 44 Noroeste 1 -- -- 96
2020-10-02 15:00:00 5 17 Norte 50 Noroeste 0.4 -- -- 98
2020-10-02 14:00:00 3.6 6 Norte 42 Noroeste 6.2 -- -- 100
2020-10-02 13:00:00 4.2 13 Noroeste 50 Norte 3.6 -- -- 98
2020-10-02 12:00:00 4.7 19 Norte 42 Noroeste 4.6 -- -- 98
2020-10-02 11:00:00 5.1 22 Norte 44 Noroeste 1.4 -- -- 96
2020-10-02 10:00:00 5.9 16 Norte 41 Noroeste 0.8 -- -- 96
2020-10-02 09:00:00 6 23 Noroeste 53 Noroeste 3.2 -- -- 100
2020-10-02 08:00:00 6.4 16 Norte 73 Norte 3.8 -- -- 100
2020-10-02 07:00:00 8.5 18 Noroeste 45 Norte 4.8 -- -- 99
2020-10-02 06:00:00 9.6 23 Norte 38 Norte 4.6 -- -- 98
2020-10-02 05:00:00 10.3 13 Norte 44 Norte 12.2 -- -- 98
2020-10-02 04:00:00 12 10 Norte 78 Sudeste 2.8 -- -- 87
2020-10-02 03:00:00 13.7 24 Sudeste 65 Sudeste 0 -- -- 70
2020-10-02 02:00:00 13.9 27 Sudeste 84 Sur 0 -- -- 70
2020-10-02 01:00:00 16.3 32 Sudeste 81 Sudeste 0 -- -- 59
2020-10-02 00:00:00 15.9 24 Sudeste 86 Sudeste 0 -- -- 61
2020-10-01 23:00:00 16.2 28 Sudeste 61 Sudeste 0 -- -- 57
2020-10-01 22:00:00 16.7 25 Sudeste 73 Sur 0 -- -- 54
2020-10-01 21:00:00 16.3 23 Sudeste 50 Sudeste 0 -- -- 56
2020-10-01 20:00:00 14.2 7 Este 20 Sudoeste 0 -- -- 64
2020-10-01 19:00:00 11.8 4 Norte 9 Noroeste 0 -- -- 89
2020-10-01 18:00:00 12 3 Sudeste 6 Noroeste 0 -- -- 88
2020-10-01 17:00:00 11.9 4 Noroeste 10 Noroeste 0 -- -- 92
2020-10-01 16:00:00 11.6 3 Noroeste 12 Noroeste 0 -- -- 94
2020-10-01 15:00:00 11.5 0 Calma 9 Norte 0.4 -- -- 95
2020-10-01 14:00:00 10.9 8 Norte 21 Norte 0.8 -- -- 95
2020-10-01 13:00:00 11.6 3 Este 12 Norte 0.2 -- -- 94
2020-10-01 12:00:00 11 4 Norte 28 Norte 0.2 -- -- 96
2020-10-01 11:00:00 10.8 4 Noroeste 26 Norte 1.2 -- -- 99
2020-10-01 10:00:00 10.7 5 Noroeste 28 Norte 1.6 -- -- 98
2020-10-01 09:00:00 10.9 2 Noroeste 8 Norte 2.6 -- -- 99
2020-10-01 08:00:00 10.9 8 Norte 27 Noroeste 1.2 -- -- 97
2020-10-01 07:00:00 11.9 12 Norte 27 Noroeste 2 -- -- 97
2020-10-01 06:00:00 12.8 13 Norte 29 Norte 0 -- -- 94
2020-10-01 05:00:00 13.3 5 Norte 19 Noroeste 0 -- -- 90
2020-10-01 04:00:00 14 4 Noroeste 19 Noroeste 0 -- -- 84
2020-10-01 03:00:00 12.6 4 Sudeste 10 Sudeste 0 -- -- 83
2020-10-01 02:00:00 12.6 5 Sudeste 15 Sudeste 0 -- -- 81
2020-10-01 01:00:00 13.1 4 Sudeste 12 Sudeste 0 -- -- 74
2020-10-01 00:00:00 13.1 3 Sudeste 13 Sudeste 0 -- -- 75